La Camp, Louisiana
Current Conditions -  °F | °C
As of 11:54 PM on Friday 19 Dec 2014 (Local Time) from KBKB Reporting Station
Haze Haze  
Wind Chill: 49°   Ceiling: 400
Heat Index: 49°   Visibility: 4mi
Dew Point: 46°   Wind: 3mph
Humidity: 90%   Direction: NA
Pressure: 30.12"   Gusts: NA
Location:  31.0802°N, 92.7964°W
Report Text: KBKB 200554Z AUTO VRB03KT 4SM BR OVC004 09/08 A3012 RMK AO2 SLP472 60000 T00940078 10106 20094 401330094 50004 $
Loading
Personal Weather Stations






























Interactive Weather Map New forecast layout! Learn more

10-Day Weather Forecast

Advertisements
Track Severe Weather on mobile